Time;durP1;ratioP1;P1;durP2;ratioP2;P2;SDS_P1;SDS_P2;PMS_P1;PMS_P2;Temp;Humidity;BMP_temperature;BMP_pressure;BME280_temperature;BME280_humidity;BME280_pressure;Samples;Min_cycle;Max_cycle;Signal;HPM_P1;HPM_P2
2023/03/07 00:01:00;;;;;;;14.55;2.10;;;5.70;99.90;;;;;;5034356;28;20440;-69
2023/03/07 00:03:26;;;;;;;18.67;2.55;;;5.50;99.90;;;;;;5034585;28;20041;-68
2023/03/07 00:06:07;;;;;;;14.05;2.28;;;5.40;99.90;;;;;;5028330;28;20029;-70
2023/03/07 00:08:34;;;;;;;17.45;3.58;;;5.30;99.90;;;;;;5034622;28;20041;-70
2023/03/07 00:11:06;;;;;;;15.57;2.45;;;5.30;99.90;;;;;;5034159;28;20389;-69
2023/03/07 00:13:33;;;;;;;16.63;2.75;;;5.40;99.90;;;;;;5034621;28;20041;-68
2023/03/07 00:16:01;;;;;;;20.20;2.15;;;5.30;99.90;;;;;;5034362;28;20029;-70
2023/03/07 00:18:29;;;;;;;17.45;2.72;;;5.30;99.90;;;;;;5033791;28;20492;-68
2023/03/07 00:20:59;;;;;;;15.70;2.70;;;5.30;99.90;;;;;;5034230;28;20041;-67
2023/03/07 00:23:25;;;;;;;15.40;2.03;;;5.40;99.90;;;;;;5033904;28;20044;-67
2023/03/07 00:25:58;;;;;;;11.27;1.52;;;5.40;99.90;;;;;;5033763;28;20033;-70
2023/03/07 00:28:24;;;;;;;11.32;1.63;;;5.40;99.90;;;;;;5033762;28;20041;-67
2023/03/07 00:30:49;;;;;;;11.68;2.22;;;5.40;99.90;;;;;;5033626;28;20034;-67
2023/03/07 00:33:15;;;;;;;12.45;1.65;;;5.50;99.90;;;;;;5033634;28;20036;-67
2023/03/07 00:35:40;;;;;;;12.38;1.75;;;5.50;99.90;;;;;;5033800;28;20101;-68
2023/03/07 00:38:06;;;;;;;9.15;1.95;;;5.50;99.90;;;;;;5033947;28;20039;-68
2023/03/07 00:40:32;;;;;;;12.57;1.98;;;5.50;99.90;;;;;;5033881;28;20112;-68
2023/03/07 00:42:57;;;;;;;8.63;1.40;;;5.60;99.90;;;;;;5033563;28;20385;-69
2023/03/07 00:45:23;;;;;;;11.40;1.60;;;5.60;99.90;;;;;;5033838;28;20368;-68
2023/03/07 00:47:48;;;;;;;13.93;1.65;;;5.60;99.90;;;;;;5033221;28;20442;-67
2023/03/07 00:50:14;;;;;;;10.38;1.98;;;5.60;99.90;;;;;;5033358;28;20025;-68
2023/03/07 00:52:39;;;;;;;13.43;2.10;;;5.70;99.90;;;;;;5031766;28;20079;-68
2023/03/07 00:55:06;;;;;;;7.07;1.35;;;5.70;99.90;;;;;;5031024;28;20057;-69
2023/03/07 00:57:31;;;;;;;8.50;1.50;;;5.70;99.90;;;;;;5033234;28;20557;-67
2023/03/07 00:59:57;;;;;;;10.40;1.35;;;5.70;99.90;;;;;;5019504;28;20038;-70
2023/03/07 01:02:22;;;;;;;13.00;1.77;;;5.70;99.90;;;;;;5014812;28;20084;-67
2023/03/07 01:04:48;;;;;;;8.02;1.05;;;5.70;99.90;;;;;;5030280;28;20017;-69
2023/03/07 01:07:13;;;;;;;10.85;1.27;;;5.70;99.90;;;;;;5034009;28;20033;-67
2023/03/07 01:09:39;;;;;;;7.72;1.30;;;5.60;99.90;;;;;;5015566;28;20413;-69
2023/03/07 01:12:06;;;;;;;10.40;1.73;;;5.60;99.90;;;;;;5033228;28;20491;-68
2023/03/07 01:14:32;;;;;;;8.85;1.60;;;5.60;99.90;;;;;;5033733;28;20059;-68
2023/03/07 01:16:57;;;;;;;12.73;1.55;;;5.60;99.90;;;;;;5032994;28;20030;-67
2023/03/07 01:19:23;;;;;;;5.72;1.13;;;5.60;99.90;;;;;;5033476;28;20516;-67
2023/03/07 01:21:49;;;;;;;7.40;1.25;;;5.60;99.90;;;;;;5033141;28;20036;-69
2023/03/07 01:24:15;;;;;;;7.95;1.48;;;5.50;99.90;;;;;;5033308;28;20030;-68
2023/03/07 01:26:41;;;;;;;11.00;1.50;;;5.50;99.90;;;;;;5033622;28;20048;-69
2023/03/07 01:29:12;;;;;;;7.82;1.50;;;5.60;99.90;;;;;;5033091;28;20057;-69
2023/03/07 01:31:38;;;;;;;11.23;1.80;;;5.60;99.90;;;;;;5033238;28;20029;-67
2023/03/07 01:34:04;;;;;;;8.32;2.28;;;5.60;99.90;;;;;;5033243;28;20026;-67
2023/03/07 01:36:32;;;;;;;6.32;1.52;;;5.60;99.90;;;;;;5028383;28;20057;-67
2023/03/07 01:39:01;;;;;;;6.40;1.38;;;5.60;99.90;;;;;;5032687;28;20030;-67
2023/03/07 01:41:30;;;;;;;7.45;1.33;;;5.60;99.90;;;;;;5032059;28;20546;-68
2023/03/07 01:44:01;;;;;;;9.60;1.95;;;5.70;99.90;;;;;;5031999;28;20029;-67
2023/03/07 01:46:36;;;;;;;9.30;1.30;;;5.70;99.90;;;;;;5032905;28;20116;-68
2023/03/07 01:49:22;;;;;;;7.32;1.60;;;5.70;99.90;;;;;;5032168;28;20500;-67
2023/03/07 01:51:53;;;;;;;10.07;1.25;;;5.70;99.90;;;;;;5014291;28;20099;-68
2023/03/07 01:54:21;;;;;;;11.43;1.83;;;5.70;99.90;;;;;;5031588;28;20041;-68
2023/03/07 01:57:08;;;;;;;8.70;1.40;;;5.80;99.90;;;;;;5031779;28;20033;-68
2023/03/07 01:59:59;;;;;;;9.70;1.63;;;5.80;99.90;;;;;;5012517;28;20034;-67
2023/03/07 02:03:13;;;;;;;9.30;2.03;;;5.80;99.90;;;;;;5021846;28;20149;-67
2023/03/07 02:06:03;;;;;;;8.55;1.20;;;5.80;99.90;;;;;;4968803;28;20117;-68
2023/03/07 02:08:30;;;;;;;13.30;1.58;;;5.80;99.90;;;;;;5032236;28;20033;-68
2023/03/07 02:10:56;;;;;;;9.43;1.33;;;5.80;99.90;;;;;;5031938;28;20032;-67
2023/03/07 02:13:21;;;;;;;11.90;2.13;;;5.90;99.90;;;;;;5032136;28;20112;-68
2023/03/07 02:15:49;;;;;;;4.70;1.80;;;6.00;99.90;;;;;;5032007;28;20025;-67
2023/03/07 02:18:18;;;;;;;12.55;3.22;;;6.00;99.90;;;;;;5032095;28;20033;-68
2023/03/07 02:20:52;;;;;;;16.15;2.60;;;6.00;99.90;;;;;;5031808;28;20039;-68
2023/03/07 02:23:40;;;;;;;15.05;3.97;;;6.00;99.90;;;;;;5032333;28;20017;-68
2023/03/07 02:26:27;;;;;;;14.57;3.28;;;6.00;99.90;;;;;;5017838;28;20048;-67
2023/03/07 02:28:53;;;;;;;15.68;4.28;;;6.00;99.90;;;;;;5014041;28;20053;-68
2023/03/07 02:31:19;;;;;;;9.35;2.67;;;6.10;99.90;;;;;;5031832;28;20087;-68
2023/03/07 02:33:45;;;;;;;14.45;2.22;;;6.10;99.90;;;;;;5014473;28;20034;-68
2023/03/07 02:36:16;;;;;;;15.52;4.65;;;6.10;99.90;;;;;;5031463;28;20033;-68
2023/03/07 02:38:44;;;;;;;8.38;1.98;;;6.10;99.90;;;;;;5031124;28;20370;-68
2023/03/07 02:41:12;;;;;;;13.32;3.25;;;6.10;99.90;;;;;;5031585;28;20124;-67
2023/03/07 02:43:38;;;;;;;16.17;5.03;;;6.00;99.90;;;;;;5031517;28;20501;-68
2023/03/07 02:46:04;;;;;;;10.15;2.25;;;6.00;99.90;;;;;;5031941;28;20025;-68
2023/03/07 02:48:30;;;;;;;11.63;2.90;;;6.00;99.90;;;;;;5031096;28;20038;-68
2023/03/07 02:50:56;;;;;;;15.57;2.63;;;6.00;99.90;;;;;;5031633;28;20044;-68
2023/03/07 02:53:22;;;;;;;13.60;3.50;;;6.00;99.90;;;;;;5030813;28;20392;-68
2023/03/07 02:55:49;;;;;;;11.55;3.03;;;5.90;99.90;;;;;;5031584;28;20029;-68
2023/03/07 02:58:14;;;;;;;19.90;5.95;;;5.90;99.90;;;;;;5031400;28;20092;-68
2023/03/07 03:00:40;;;;;;;19.38;5.10;;;5.90;99.90;;;;;;5030675;28;20428;-68
2023/03/07 03:03:05;;;;;;;11.43;2.03;;;5.80;99.90;;;;;;5031223;28;20102;-68
2023/03/07 03:05:31;;;;;;;14.00;3.72;;;5.80;99.90;;;;;;5031347;28;20522;-67
2023/03/07 03:07:56;;;;;;;14.10;4.25;;;5.90;99.90;;;;;;5031022;28;20524;-68
2023/03/07 03:10:22;;;;;;;11.02;2.42;;;5.90;99.90;;;;;;5031540;28;20041;-68
2023/03/07 03:12:49;;;;;;;8.35;2.47;;;5.90;99.90;;;;;;5031933;28;20052;-67
2023/03/07 03:15:15;;;;;;;13.48;2.05;;;5.90;99.90;;;;;;5030740;28;20029;-69
2023/03/07 03:17:41;;;;;;;9.00;2.60;;;6.00;99.90;;;;;;5018271;28;20029;-68
2023/03/07 03:20:11;;;;;;;15.85;4.20;;;6.00;99.90;;;;;;5028322;28;20028;-68
2023/03/07 03:22:38;;;;;;;9.23;2.30;;;6.00;99.90;;;;;;5031936;28;20017;-68
2023/03/07 03:25:06;;;;;;;12.50;3.25;;;6.00;99.90;;;;;;5031738;28;20025;-68
2023/03/07 03:27:33;;;;;;;9.80;2.75;;;6.00;99.90;;;;;;5030617;28;20038;-67
2023/03/07 03:29:58;;;;;;;14.23;3.03;;;5.90;99.90;;;;;;5030936;28;20061;-67
2023/03/07 03:32:24;;;;;;;8.60;2.28;;;5.90;99.90;;;;;;5031380;28;20029;-68
2023/03/07 03:34:49;;;;;;;8.65;2.33;;;5.90;99.90;;;;;;5034040;28;20030;-67
2023/03/07 03:37:15;;;;;;;8.73;1.95;;;5.90;99.90;;;;;;5035062;28;20392;-68
2023/03/07 03:39:41;;;;;;;10.15;2.35;;;5.80;99.90;;;;;;5034625;28;20428;-67
2023/03/07 03:42:07;;;;;;;7.50;1.60;;;5.80;99.90;;;;;;5034274;28;20072;-68
2023/03/07 03:44:32;;;;;;;8.90;1.70;;;5.80;99.90;;;;;;5035157;28;20029;-68
2023/03/07 03:46:58;;;;;;;12.15;2.25;;;5.80;99.90;;;;;;5033968;28;20025;-68
2023/03/07 03:49:23;;;;;;;11.27;3.10;;;5.70;99.90;;;;;;5033971;28;20045;-68
2023/03/07 03:51:49;;;;;;;10.93;3.10;;;5.70;99.90;;;;;;5034595;28;20029;-68
2023/03/07 03:54:14;;;;;;;5.95;1.80;;;5.60;99.90;;;;;;5034882;28;20041;-68
2023/03/07 03:56:40;;;;;;;8.77;1.65;;;5.60;99.90;;;;;;5034681;28;20034;-67
2023/03/07 03:59:06;;;;;;;7.38;2.05;;;5.60;99.90;;;;;;5034199;28;20125;-68
2023/03/07 04:01:32;;;;;;;13.98;3.63;;;5.60;99.90;;;;;;5034645;28;20059;-68
2023/03/07 04:03:58;;;;;;;9.20;2.67;;;5.60;99.90;;;;;;5034518;28;20084;-67
2023/03/07 04:06:29;;;;;;;11.20;2.10;;;5.50;99.90;;;;;;5034697;28;20060;-68
2023/03/07 04:08:55;;;;;;;10.32;3.10;;;5.50;99.90;;;;;;5034615;28;20037;-68
2023/03/07 04:11:22;;;;;;;5.60;1.52;;;5.40;99.90;;;;;;5034592;28;20075;-68
2023/03/07 04:13:48;;;;;;;11.10;2.85;;;5.40;99.90;;;;;;5033575;28;20030;-68
2023/03/07 04:16:14;;;;;;;7.47;2.55;;;5.30;99.90;;;;;;5034470;28;20389;-68
2023/03/07 04:18:40;;;;;;;15.63;2.42;;;5.30;99.90;;;;;;5033973;28;20377;-68
2023/03/07 04:21:06;;;;;;;10.65;2.72;;;5.20;99.90;;;;;;5034064;28;20041;-68
2023/03/07 04:23:32;;;;;;;6.00;0.98;;;5.20;99.90;;;;;;5033118;28;20034;-68
2023/03/07 04:26:00;;;;;;;8.38;2.00;;;5.20;99.90;;;;;;5033494;28;20064;-68
2023/03/07 04:28:44;;;;;;;8.13;1.63;;;5.10;99.90;;;;;;5033818;28;20124;-68
2023/03/07 04:31:16;;;;;;;6.05;1.58;;;5.10;99.90;;;;;;5033690;28;20026;-68
2023/03/07 04:33:42;;;;;;;9.15;1.98;;;5.10;99.90;;;;;;5033703;28;20032;-68
2023/03/07 04:36:08;;;;;;;8.95;2.63;;;5.10;99.90;;;;;;5032472;28;20033;-68
2023/03/07 04:38:34;;;;;;;14.02;2.20;;;5.20;99.90;;;;;;5033401;28;20355;-68
2023/03/07 04:40:59;;;;;;;9.50;2.67;;;5.20;99.90;;;;;;5033609;28;20127;-68
2023/03/07 04:43:25;;;;;;;7.40;1.83;;;5.20;99.90;;;;;;5033741;28;20465;-69
2023/03/07 04:45:52;;;;;;;8.40;2.03;;;5.20;99.90;;;;;;5033599;28;20065;-67
2023/03/07 04:48:18;;;;;;;6.53;1.65;;;5.30;99.90;;;;;;5033774;28;20067;-68
2023/03/07 04:50:44;;;;;;;7.40;1.50;;;5.20;99.90;;;;;;5032841;28;20072;-68
2023/03/07 04:53:09;;;;;;;5.18;1.55;;;5.20;99.90;;;;;;5032625;28;20049;-68
2023/03/07 04:55:35;;;;;;;9.63;1.88;;;5.00;99.90;;;;;;5031490;28;20108;-68
2023/03/07 04:58:00;;;;;;;8.07;1.80;;;4.90;99.90;;;;;;5033219;28;20119;-68
2023/03/07 05:00:26;;;;;;;6.00;1.30;;;4.80;99.90;;;;;;5032798;28;20099;-69
2023/03/07 05:02:56;;;;;;;9.65;1.80;;;4.70;99.90;;;;;;5033496;28;20433;-68
2023/03/07 05:05:22;;;;;;;9.95;1.48;;;4.60;99.90;;;;;;5032134;28;20034;-69
2023/03/07 05:07:47;;;;;;;3.38;1.20;;;4.50;99.90;;;;;;5031611;28;20072;-70
2023/03/07 05:10:13;;;;;;;7.43;1.45;;;4.40;99.90;;;;;;5031337;28;20075;-68
2023/03/07 05:12:38;;;;;;;7.75;1.65;;;4.40;99.90;;;;;;5033859;28;20098;-68
2023/03/07 05:18:35;;;;;;;7.97;1.20;;;4.30;99.90;;;;;;4993870;28;20057;-69
2023/03/07 05:21:14;;;;;;;2.88;1.17;;;4.30;99.90;;;;;;5013769;28;20029;-68
2023/03/07 05:24:21;;;;;;;9.65;1.80;;;4.30;99.90;;;;;;5008295;28;20046;-68
2023/03/07 05:26:59;;;;;;;3.60;1.70;;;4.20;99.90;;;;;;5014002;28;20041;-69
2023/03/07 05:35:42;;;;;;;6.22;1.00;;;4.20;99.90;;;;;;4992943;28;20073;-69
2023/03/07 05:38:30;;;;;;;11.52;1.63;;;4.30;99.90;;;;;;5005476;28;20058;-68
2023/03/07 05:41:33;;;;;;;4.85;1.30;;;4.30;99.90;;;;;;5009769;28;20485;-72
2023/03/07 05:44:14;;;;;;;11.00;1.58;;;4.30;99.90;;;;;;5013127;28;20493;-69
2023/03/07 05:47:05;;;;;;;7.03;1.83;;;4.30;99.90;;;;;;5011268;28;20069;-71
2023/03/07 05:49:50;;;;;;;9.88;1.95;;;4.30;99.90;;;;;;5013357;28;20033;-68
2023/03/07 05:52:54;;;;;;;5.35;1.55;;;4.30;99.90;;;;;;5008982;28;20049;-68
2023/03/07 05:55:48;;;;;;;6.35;2.05;;;4.30;99.90;;;;;;5009682;28;20533;-69
2023/03/07 05:58:24;;;;;;;6.97;1.48;;;4.30;99.90;;;;;;5011108;28;20042;-69
2023/03/07 06:01:21;;;;;;;11.93;1.58;;;4.30;99.90;;;;;;5010889;28;20093;-69
2023/03/07 06:03:57;;;;;;;6.82;1.80;;;4.20;99.90;;;;;;5012670;28;20030;-72
2023/03/07 06:06:38;;;;;;;4.60;1.15;;;4.20;99.90;;;;;;5010690;28;20034;-72
2023/03/07 06:09:46;;;;;;;6.20;1.35;;;4.20;99.90;;;;;;5009519;28;20041;-69
2023/03/07 06:12:31;;;;;;;10.43;1.83;;;4.30;99.90;;;;;;5011073;28;20022;-68
2023/03/07 06:18:56;;;;;;;6.00;2.33;;;4.20;99.90;;;;;;5010403;28;20562;-71
2023/03/07 06:21:22;;;;;;;9.07;2.22;;;4.20;99.90;;;;;;4997232;28;20517;-68
2023/03/07 06:23:47;;;;;;;13.23;2.40;;;4.20;99.90;;;;;;5011126;28;20034;-68
2023/03/07 06:26:13;;;;;;;9.52;1.55;;;4.10;99.90;;;;;;5012834;28;20032;-68
2023/03/07 06:28:40;;;;;;;10.23;1.80;;;4.20;99.90;;;;;;5009838;28;20509;-68
2023/03/07 06:31:11;;;;;;;7.10;2.00;;;4.20;99.90;;;;;;5017767;28;20040;-67
2023/03/07 06:33:37;;;;;;;10.85;2.55;;;4.20;99.90;;;;;;5031299;28;20060;-67
2023/03/07 06:36:08;;;;;;;6.95;1.45;;;4.20;99.90;;;;;;5032486;28;20513;-68
2023/03/07 06:38:34;;;;;;;8.23;1.52;;;4.20;99.90;;;;;;5031991;28;20363;-67
2023/03/07 06:41:00;;;;;;;7.63;1.63;;;4.20;99.90;;;;;;5031736;28;20037;-67
2023/03/07 06:43:25;;;;;;;3.67;1.20;;;4.20;99.90;;;;;;5032143;28;20414;-68
2023/03/07 06:45:51;;;;;;;7.30;1.40;;;4.30;99.90;;;;;;5031879;28;20036;-67
2023/03/07 06:48:17;;;;;;;7.15;1.63;;;4.30;99.90;;;;;;5031264;28;20376;-68
2023/03/07 06:50:43;;;;;;;7.20;2.03;;;4.30;99.90;;;;;;5031761;28;20123;-67
2023/03/07 06:53:09;;;;;;;6.10;1.27;;;4.40;99.90;;;;;;5031218;28;20053;-67
2023/03/07 06:55:34;;;;;;;8.60;1.35;;;4.40;99.90;;;;;;5031923;28;20053;-67
2023/03/07 06:58:00;;;;;;;3.35;0.95;;;4.40;99.90;;;;;;5030769;28;20034;-68
2023/03/07 07:00:26;;;;;;;9.85;1.70;;;4.40;99.90;;;;;;5029843;28;20459;-68
2023/03/07 07:02:51;;;;;;;8.10;1.83;;;4.40;99.90;;;;;;5029960;28;20521;-68
2023/03/07 07:05:17;;;;;;;7.93;2.13;;;4.40;99.90;;;;;;5029706;28;20029;-68
2023/03/07 07:07:42;;;;;;;9.75;2.25;;;4.40;99.90;;;;;;5031207;28;20033;-68
2023/03/07 07:10:09;;;;;;;9.50;1.75;;;4.50;99.90;;;;;;5034344;28;20041;-67
2023/03/07 07:12:34;;;;;;;10.50;3.35;;;4.50;99.90;;;;;;5033672;28;20385;-67
2023/03/07 07:15:01;;;;;;;10.98;2.28;;;4.50;99.90;;;;;;5033335;28;20033;-68
2023/03/07 07:17:28;;;;;;;7.88;2.40;;;4.60;99.90;;;;;;5034123;28;20044;-67
2023/03/07 07:19:53;;;;;;;10.57;2.20;;;4.60;99.90;;;;;;5033433;28;20025;-67
2023/03/07 07:22:19;;;;;;;8.05;2.15;;;4.60;99.90;;;;;;5033462;28;20037;-67
2023/03/07 07:24:45;;;;;;;10.73;2.55;;;4.60;99.90;;;;;;5034251;28;20026;-69
2023/03/07 07:27:10;;;;;;;8.90;2.22;;;4.70;99.90;;;;;;5034073;28;20025;-67
2023/03/07 07:29:36;;;;;;;6.35;1.52;;;4.70;99.90;;;;;;5032985;28;20061;-70
2023/03/07 07:32:01;;;;;;;13.98;2.58;;;4.70;99.90;;;;;;5032874;28;20523;-68
2023/03/07 07:34:27;;;;;;;14.55;2.85;;;4.70;99.90;;;;;;5034066;28;20038;-67
2023/03/07 07:36:53;;;;;;;14.45;3.30;;;4.70;99.90;;;;;;5034090;28;20108;-69
2023/03/07 07:39:20;;;;;;;14.40;3.35;;;4.70;99.90;;;;;;5033790;28;20037;-70
2023/03/07 07:41:46;;;;;;;13.20;2.22;;;4.80;99.90;;;;;;5030111;28;20422;-69
2023/03/07 07:44:12;;;;;;;12.77;2.95;;;4.80;99.90;;;;;;5033563;28;20073;-69
2023/03/07 07:46:39;;;;;;;11.23;2.78;;;4.90;99.90;;;;;;5029539;28;20489;-68
2023/03/07 07:49:04;;;;;;;13.40;2.72;;;4.80;99.90;;;;;;5032587;28;20040;-67
2023/03/07 07:51:30;;;;;;;12.30;2.60;;;4.90;99.90;;;;;;5021456;28;20034;-67
2023/03/07 07:53:55;;;;;;;14.63;2.90;;;4.90;99.90;;;;;;5029844;28;20033;-67
2023/03/07 07:56:21;;;;;;;12.90;2.72;;;4.90;99.90;;;;;;5034433;28;20049;-67
2023/03/07 07:58:47;;;;;;;9.73;1.67;;;5.00;99.90;;;;;;5034721;28;20032;-67
2023/03/07 08:01:15;;;;;;;11.55;2.08;;;5.10;99.90;;;;;;5029215;28;20026;-68
2023/03/07 08:03:40;;;;;;;11.23;2.33;;;5.20;99.90;;;;;;5034318;28;20040;-67
2023/03/07 08:06:06;;;;;;;8.45;2.25;;;5.20;99.90;;;;;;5034096;28;20026;-67
2023/03/07 08:08:32;;;;;;;7.10;1.65;;;5.30;99.90;;;;;;5033370;28;20783;-67
2023/03/07 08:10:58;;;;;;;9.82;3.25;;;5.30;99.90;;;;;;5031140;28;20033;-68
2023/03/07 08:13:23;;;;;;;13.07;2.50;;;5.30;99.90;;;;;;5033688;28;20072;-69
2023/03/07 08:15:49;;;;;;;12.30;1.70;;;5.30;99.90;;;;;;5034035;28;20061;-69
2023/03/07 08:18:14;;;;;;;11.27;2.17;;;5.30;99.90;;;;;;5033708;28;20526;-69
2023/03/07 08:20:40;;;;;;;12.00;1.80;;;5.20;99.90;;;;;;5032548;28;20017;-69
2023/03/07 08:23:06;;;;;;;6.95;1.75;;;5.10;99.90;;;;;;5033455;28;20092;-68
2023/03/07 08:25:32;;;;;;;11.90;2.22;;;5.00;99.90;;;;;;5033826;28;20081;-68
2023/03/07 08:27:58;;;;;;;12.38;2.47;;;5.00;99.90;;;;;;5033747;28;20428;-69
2023/03/07 08:30:25;;;;;;;10.68;2.55;;;4.90;99.90;;;;;;5033905;28;20057;-68
2023/03/07 08:32:52;;;;;;;6.93;1.75;;;4.90;99.90;;;;;;5032601;28;20100;-68
2023/03/07 08:35:18;;;;;;;6.50;2.33;;;4.90;99.90;;;;;;5034313;28;20026;-69
2023/03/07 08:37:44;;;;;;;9.77;2.40;;;4.90;99.90;;;;;;5032819;28;20032;-69
2023/03/07 08:40:10;;;;;;;11.32;2.08;;;4.90;99.90;;;;;;5033720;28;20033;-68
2023/03/07 08:42:35;;;;;;;10.57;2.60;;;4.90;99.90;;;;;;5032848;28;20060;-68
2023/03/07 08:45:01;;;;;;;8.63;1.95;;;4.90;99.90;;;;;;5033855;28;20037;-68
2023/03/07 08:47:27;;;;;;;11.77;2.40;;;5.00;99.90;;;;;;5033618;28;20052;-68
2023/03/07 08:49:52;;;;;;;9.32;1.65;;;5.10;99.90;;;;;;5033608;28;20049;-68
2023/03/07 08:52:18;;;;;;;9.35;2.00;;;5.30;99.90;;;;;;5033149;28;20040;-68
2023/03/07 08:54:43;;;;;;;8.65;2.40;;;5.40;99.90;;;;;;5033835;28;20096;-67
2023/03/07 08:57:09;;;;;;;12.95;4.00;;;5.40;99.90;;;;;;5033433;28;20551;-68
2023/03/07 08:59:35;;;;;;;11.55;2.70;;;5.50;99.90;;;;;;5033054;28;20025;-68
2023/03/07 09:02:00;;;;;;;11.70;3.58;;;5.60;99.90;;;;;;5032041;28;20116;-69
2023/03/07 09:04:26;;;;;;;13.73;2.97;;;5.70;99.90;;;;;;5032708;28;20057;-69
2023/03/07 09:06:52;;;;;;;12.43;2.33;;;5.80;99.90;;;;;;5014563;28;20070;-68
2023/03/07 09:09:17;;;;;;;10.02;3.28;;;5.90;99.90;;;;;;5015100;28;20033;-68
2023/03/07 09:11:43;;;;;;;14.80;3.70;;;6.00;99.90;;;;;;5031304;28;20029;-68
2023/03/07 09:14:08;;;;;;;11.65;2.47;;;6.00;99.90;;;;;;5032438;28;20049;-68
2023/03/07 09:16:34;;;;;;;7.80;2.03;;;6.00;99.90;;;;;;5033017;28;20025;-68
2023/03/07 09:19:00;;;;;;;5.68;1.02;;;6.00;99.90;;;;;;5033028;28;20452;-69
2023/03/07 09:21:25;;;;;;;9.27;2.58;;;6.00;99.90;;;;;;5032960;28;20041;-68
2023/03/07 09:23:51;;;;;;;10.05;2.13;;;6.00;99.90;;;;;;5032533;28;20060;-69
2023/03/07 09:26:16;;;;;;;5.90;0.95;;;6.00;99.90;;;;;;5032608;28;20108;-70
2023/03/07 09:28:42;;;;;;;6.97;2.00;;;5.90;99.90;;;;;;5032845;28;20042;-69
2023/03/07 09:31:12;;;;;;;8.30;1.63;;;5.90;99.90;;;;;;5009340;28;20124;-69
2023/03/07 09:33:39;;;;;;;7.28;2.35;;;5.80;99.90;;;;;;5031548;28;20432;-69
2023/03/07 09:36:07;;;;;;;11.23;2.58;;;5.80;99.90;;;;;;5032952;28;20409;-69
2023/03/07 09:38:33;;;;;;;9.38;2.58;;;5.80;99.90;;;;;;5032345;28;20037;-69
2023/03/07 09:41:20;;;;;;;9.98;2.35;;;5.80;99.90;;;;;;5031303;28;20480;-69
2023/03/07 09:44:09;;;;;;;6.40;1.75;;;5.90;99.90;;;;;;5032155;28;20041;-69
2023/03/07 09:47:01;;;;;;;7.07;1.60;;;5.90;99.90;;;;;;5017310;28;20021;-68
2023/03/07 09:49:41;;;;;;;12.90;2.42;;;5.90;99.90;;;;;;5031548;28;20045;-68
2023/03/07 09:52:13;;;;;;;12.23;2.88;;;5.90;99.90;;;;;;5030372;28;20040;-68
2023/03/07 09:54:52;;;;;;;10.00;1.88;;;5.90;99.90;;;;;;5031854;28;20037;-68
2023/03/07 09:57:27;;;;;;;7.55;2.33;;;6.00;99.90;;;;;;5031767;28;20403;-68
2023/03/07 09:59:59;;;;;;;6.30;1.25;;;6.00;99.90;;;;;;5031465;28;20029;-68
2023/03/07 10:02:31;;;;;;;9.80;1.40;;;6.00;99.90;;;;;;5031518;28;20068;-68
2023/03/07 10:05:13;;;;;;;10.15;2.20;;;6.00;99.90;;;;;;5032269;28;20079;-68
2023/03/07 10:07:38;;;;;;;7.10;1.92;;;6.10;99.90;;;;;;5032600;28;20033;-68
2023/03/07 10:10:16;;;;;;;10.23;2.72;;;6.30;99.90;;;;;;5031711;28;20443;-68
2023/03/07 10:13:04;;;;;;;8.63;3.03;;;6.40;99.90;;;;;;5031862;28;20021;-68
2023/03/07 10:15:41;;;;;;;10.30;1.98;;;6.60;99.90;;;;;;5032307;28;20506;-67
2023/03/07 10:18:31;;;;;;;9.70;2.90;;;6.80;99.90;;;;;;5028778;28;20041;-67
2023/03/07 10:21:18;;;;;;;13.10;2.40;;;6.90;99.90;;;;;;5009916;28;20045;-68
2023/03/07 10:24:10;;;;;;;8.18;2.33;;;7.10;99.90;;;;;;5028805;28;20128;-67
2023/03/07 10:26:40;;;;;;;;;;;7.20;99.90;;;;;;4999198;28;20088;-67
2023/03/07 10:29:23;;;;;;;16.25;3.70;;;7.40;99.90;;;;;;5031447;28;19933;-68
2023/03/07 10:31:54;;;;;;;9.32;1.65;;;7.50;99.90;;;;;;5032134;28;20410;-68
2023/03/07 10:34:30;;;;;;;7.05;1.35;;;7.50;99.90;;;;;;5032233;28;20037;-69
2023/03/07 10:37:17;;;;;;;5.32;1.50;;;7.40;99.90;;;;;;5031287;28;20048;-69
2023/03/07 10:39:52;;;;;;;3.80;1.02;;;7.10;99.90;;;;;;5013071;28;20030;-70
2023/03/07 10:42:23;;;;;;;7.85;1.60;;;6.80;99.90;;;;;;5030740;28;20087;-71
2023/03/07 10:44:50;;;;;;;4.60;0.95;;;6.40;99.90;;;;;;5031526;28;20104;-71
2023/03/07 10:47:24;;;;;;;3.50;1.08;;;6.10;99.90;;;;;;5032143;28;20031;-70
2023/03/07 10:49:53;;;;;;;5.53;0.85;;;5.70;99.90;;;;;;5028892;28;20117;-70
2023/03/07 10:52:19;;;;;;;3.10;0.80;;;5.40;99.90;;;;;;5031665;28;20049;-69
2023/03/07 10:54:44;;;;;;;7.93;1.85;;;5.30;99.90;;;;;;5032217;28;20053;-69
2023/03/07 10:57:13;;;;;;;6.57;1.55;;;5.30;99.90;;;;;;5031489;28;20025;-68
2023/03/07 10:59:48;;;;;;;28.83;5.85;;;5.40;99.90;;;;;;5031955;28;20466;-69
2023/03/07 11:02:34;;;;;;;30.10;6.68;;;5.50;99.90;;;;;;5030895;28;20034;-68
2023/03/07 11:05:01;;;;;;;8.55;1.90;;;5.70;99.90;;;;;;5031819;28;20075;-68
2023/03/07 11:07:35;;;;;;;12.32;2.85;;;5.80;99.90;;;;;;5013419;28;20032;-67
2023/03/07 11:10:20;;;;;;;13.85;2.90;;;6.10;99.90;;;;;;5030825;28;20363;-67
2023/03/07 11:12:47;;;;;;;6.10;1.42;;;6.30;99.90;;;;;;5028146;28;20597;-67
2023/03/07 11:15:23;;;;;;;2.38;1.10;;;6.40;99.90;;;;;;5031901;28;20021;-68
2023/03/07 11:17:50;;;;;;;5.97;1.40;;;6.50;99.90;;;;;;5027200;28;20025;-67
2023/03/07 11:20:47;;;;;;;6.38;1.55;;;6.60;99.90;;;;;;5026446;28;20025;-68
2023/03/07 11:23:23;;;;;;;10.85;2.20;;;6.70;99.90;;;;;;4999209;28;20375;-67
2023/03/07 11:25:54;;;;;;;10.77;2.17;;;6.70;99.90;;;;;;5030788;28;20072;-68
2023/03/07 11:28:27;;;;;;;16.13;3.67;;;6.80;99.90;;;;;;5029793;28;20489;-67
2023/03/07 11:31:04;;;;;;;11.40;2.50;;;7.00;99.90;;;;;;5030764;28;20038;-67
2023/03/07 11:33:49;;;;;;;12.13;2.25;;;7.20;99.90;;;;;;5030304;28;20032;-66
2023/03/07 11:36:21;;;;;;;12.35;2.05;;;7.30;99.90;;;;;;5029072;28;20049;-66
2023/03/07 11:39:07;;;;;;;6.75;1.17;;;7.40;99.90;;;;;;5030650;28;20029;-67
2023/03/07 11:41:38;;;;;;;10.68;2.05;;;7.40;99.90;;;;;;5029351;28;20032;-67
2023/03/07 11:44:33;;;;;;;7.78;1.85;;;7.50;99.90;;;;;;5028855;28;20502;-68
2023/03/07 11:47:09;;;;;;;9.05;1.70;;;7.50;99.90;;;;;;5030329;28;20057;-66
2023/03/07 11:49:54;;;;;;;4.22;1.42;;;7.50;99.90;;;;;;5023744;28;20033;-67
2023/03/07 11:52:40;;;;;;;9.43;2.05;;;7.50;99.90;;;;;;5030543;28;20485;-67
2023/03/07 11:55:37;;;;;;;13.25;2.80;;;7.40;99.90;;;;;;5022979;28;20017;-67
2023/03/07 11:58:42;;;;;;;7.13;1.13;;;7.50;99.90;;;;;;5034979;28;20030;-66
2023/03/07 12:01:16;;;;;;;8.70;1.48;;;7.50;99.90;;;;;;5024140;28;20108;-67
2023/03/07 12:04:12;;;;;;;8.18;1.55;;;7.60;99.90;;;;;;5035256;28;20520;-66
2023/03/07 12:06:49;;;;;;;8.85;1.48;;;7.60;99.90;;;;;;5020074;28;20525;-67
2023/03/07 12:09:34;;;;;;;6.18;2.10;;;7.40;99.90;;;;;;5034977;28;20048;-67
2023/03/07 12:12:18;;;;;;;6.22;1.55;;;7.50;99.90;;;;;;5034919;28;20030;-68
2023/03/07 12:15:05;;;;;;;5.30;1.40;;;7.50;99.90;;;;;;5029908;28;20021;-66
2023/03/07 12:17:51;;;;;;;4.95;1.45;;;7.40;99.90;;;;;;5034563;28;20397;-67
2023/03/07 12:20:29;;;;;;;11.15;1.48;;;7.10;99.90;;;;;;5028288;28;20060;-66
2023/03/07 12:23:10;;;;;;;8.07;1.50;;;6.90;99.90;;;;;;5029777;28;20044;-66
2023/03/07 12:25:46;;;;;;;7.60;1.80;;;6.70;99.90;;;;;;5014724;28;20037;-68
2023/03/07 12:28:23;;;;;;;8.40;1.40;;;6.60;99.90;;;;;;5026551;28;20278;-66
2023/03/07 12:30:55;;;;;;;8.13;2.00;;;6.70;99.90;;;;;;5032093;28;20038;-68
2023/03/07 12:33:44;;;;;;;13.95;3.28;;;6.80;99.90;;;;;;5034139;28;20037;-68
2023/03/07 12:36:25;;;;;;;4.15;0.75;;;6.80;99.90;;;;;;5031138;28;20075;-71
2023/03/07 12:38:57;;;;;;;5.88;1.20;;;6.80;99.90;;;;;;5033908;28;20061;-67
2023/03/07 12:41:37;;;;;;;3.50;0.75;;;6.80;99.90;;;;;;5033439;28;20025;-67
2023/03/07 12:44:09;;;;;;;6.20;1.45;;;6.60;99.90;;;;;;5031843;28;20071;-71
2023/03/07 12:46:39;;;;;;;4.07;1.20;;;6.50;99.90;;;;;;5034014;28;20029;-68
2023/03/07 12:49:36;;;;;;;6.57;0.95;;;6.30;99.90;;;;;;5033164;28;20128;-68
2023/03/07 12:52:05;;;;;;;4.50;0.88;;;6.30;99.90;;;;;;5030019;28;20056;-68
2023/03/07 12:54:42;;;;;;;3.50;1.10;;;6.20;99.90;;;;;;5021959;28;20048;-70
2023/03/07 12:57:17;;;;;;;10.48;1.52;;;6.10;99.90;;;;;;5032961;28;20032;-69
2023/03/07 12:59:44;;;;;;;5.88;1.25;;;6.10;99.90;;;;;;5024628;28;20034;-68
2023/03/07 13:02:14;;;;;;;3.47;1.25;;;6.10;99.90;;;;;;5033251;28;20026;-67
2023/03/07 13:04:42;;;;;;;5.53;1.55;;;6.00;99.90;;;;;;5033565;28;20029;-67
2023/03/07 13:07:14;;;;;;;12.55;2.15;;;6.00;99.90;;;;;;5033236;28;20034;-67
2023/03/07 13:09:44;;;;;;;8.88;2.25;;;6.00;99.90;;;;;;5033145;28;20128;-67
2023/03/07 13:12:15;;;;;;;12.48;4.30;;;6.00;99.90;;;;;;5033476;28;20458;-67
2023/03/07 13:14:41;;;;;;;13.30;4.28;;;6.00;99.90;;;;;;5033527;28;20469;-67
2023/03/07 13:17:25;;;;;;;11.95;2.97;;;6.00;99.90;;;;;;5033651;28;20025;-67
2023/03/07 13:19:54;;;;;;;15.23;4.55;;;6.00;99.90;;;;;;5033234;28;20029;-67
2023/03/07 13:22:22;;;;;;;7.60;1.95;;;6.10;99.90;;;;;;5033749;28;20037;-67
2023/03/07 13:24:57;;;;;;;8.55;2.13;;;6.30;99.90;;;;;;5033668;28;20028;-67
2023/03/07 13:27:24;;;;;;;5.47;1.10;;;6.50;99.90;;;;;;5033266;28;20034;-67